sensor_id;sensor_type;location;lat;lon;timestamp;P1;durP1;ratioP1;P2;durP2;ratioP2
12459;SDS011;6295;49.452;8.466;2022-09-09T00:01:13;2.97;;;1.70;;
12459;SDS011;6295;49.452;8.466;2022-09-09T00:05:27;3.90;;;1.63;;
12459;SDS011;6295;49.452;8.466;2022-09-09T00:09:35;3.60;;;1.70;;
12459;SDS011;6295;49.452;8.466;2022-09-09T00:13:47;3.00;;;1.70;;
12459;SDS011;6295;49.452;8.466;2022-09-09T00:17:56;3.37;;;1.80;;
12459;SDS011;6295;49.452;8.466;2022-09-09T00:22:06;3.73;;;1.80;;
12459;SDS011;6295;49.452;8.466;2022-09-09T00:26:17;3.20;;;1.63;;
12459;SDS011;6295;49.452;8.466;2022-09-09T00:30:25;3.60;;;1.90;;
12459;SDS011;6295;49.452;8.466;2022-09-09T00:34:28;2.20;;;1.87;;
12459;SDS011;6295;49.452;8.466;2022-09-09T00:38:32;2.13;;;1.67;;
12459;SDS011;6295;49.452;8.466;2022-09-09T00:42:40;6.03;;;1.93;;
12459;SDS011;6295;49.452;8.466;2022-09-09T00:46:53;3.83;;;1.97;;
12459;SDS011;6295;49.452;8.466;2022-09-09T00:51:05;3.53;;;1.90;;
12459;SDS011;6295;49.452;8.466;2022-09-09T00:55:14;4.03;;;1.90;;
12459;SDS011;6295;49.452;8.466;2022-09-09T00:59:24;2.13;;;1.63;;
12459;SDS011;6295;49.452;8.466;2022-09-09T01:03:38;3.03;;;1.73;;
12459;SDS011;6295;49.452;8.466;2022-09-09T01:07:46;5.20;;;2.10;;
12459;SDS011;6295;49.452;8.466;2022-09-09T01:11:52;2.43;;;1.70;;
12459;SDS011;6295;49.452;8.466;2022-09-09T01:16:01;3.10;;;1.80;;
12459;SDS011;6295;49.452;8.466;2022-09-09T01:20:10;4.90;;;2.03;;
12459;SDS011;6295;49.452;8.466;2022-09-09T01:24:20;3.80;;;2.00;;
12459;SDS011;6295;49.452;8.466;2022-09-09T01:28:28;3.50;;;2.27;;
12459;SDS011;6295;49.452;8.466;2022-09-09T01:32:40;4.00;;;2.20;;
12459;SDS011;6295;49.452;8.466;2022-09-09T01:36:45;2.27;;;1.80;;
12459;SDS011;6295;49.452;8.466;2022-09-09T01:40:51;2.53;;;1.70;;
12459;SDS011;6295;49.452;8.466;2022-09-09T01:44:56;2.83;;;1.80;;
12459;SDS011;6295;49.452;8.466;2022-09-09T01:48:58;2.70;;;1.50;;
12459;SDS011;6295;49.452;8.466;2022-09-09T01:53:03;3.30;;;1.97;;
12459;SDS011;6295;49.452;8.466;2022-09-09T01:57:06;2.60;;;1.73;;
12459;SDS011;6295;49.452;8.466;2022-09-09T02:01:21;3.77;;;2.00;;
12459;SDS011;6295;49.452;8.466;2022-09-09T02:05:34;2.40;;;1.90;;
12459;SDS011;6295;49.452;8.466;2022-09-09T02:09:38;3.13;;;2.00;;
12459;SDS011;6295;49.452;8.466;2022-09-09T02:13:46;3.70;;;1.80;;
12459;SDS011;6295;49.452;8.466;2022-09-09T02:17:51;2.40;;;1.77;;
12459;SDS011;6295;49.452;8.466;2022-09-09T02:21:55;4.37;;;1.87;;
12459;SDS011;6295;49.452;8.466;2022-09-09T02:25:58;2.47;;;1.67;;
12459;SDS011;6295;49.452;8.466;2022-09-09T02:30:04;2.73;;;1.60;;
12459;SDS011;6295;49.452;8.466;2022-09-09T02:34:08;2.57;;;1.63;;
12459;SDS011;6295;49.452;8.466;2022-09-09T02:38:12;2.97;;;1.70;;
12459;SDS011;6295;49.452;8.466;2022-09-09T02:42:16;2.87;;;1.67;;
12459;SDS011;6295;49.452;8.466;2022-09-09T02:46:28;4.40;;;1.60;;
12459;SDS011;6295;49.452;8.466;2022-09-09T02:50:41;2.30;;;1.40;;
12459;SDS011;6295;49.452;8.466;2022-09-09T02:54:54;3.23;;;1.67;;
12459;SDS011;6295;49.452;8.466;2022-09-09T02:59:05;2.43;;;1.47;;
12459;SDS011;6295;49.452;8.466;2022-09-09T03:03:08;2.50;;;1.40;;
12459;SDS011;6295;49.452;8.466;2022-09-09T03:07:12;2.43;;;1.50;;
12459;SDS011;6295;49.452;8.466;2022-09-09T03:11:16;2.73;;;1.40;;
12459;SDS011;6295;49.452;8.466;2022-09-09T03:15:18;3.67;;;1.53;;
12459;SDS011;6295;49.452;8.466;2022-09-09T03:19:21;2.43;;;1.40;;
12459;SDS011;6295;49.452;8.466;2022-09-09T03:23:24;2.40;;;1.40;;
12459;SDS011;6295;49.452;8.466;2022-09-09T03:27:27;4.77;;;1.67;;
12459;SDS011;6295;49.452;8.466;2022-09-09T03:31:29;3.30;;;1.67;;
12459;SDS011;6295;49.452;8.466;2022-09-09T03:35:31;4.00;;;1.63;;
12459;SDS011;6295;49.452;8.466;2022-09-09T03:39:34;3.27;;;1.60;;
12459;SDS011;6295;49.452;8.466;2022-09-09T03:43:36;4.30;;;1.40;;
12459;SDS011;6295;49.452;8.466;2022-09-09T03:47:39;2.10;;;1.47;;
12459;SDS011;6295;49.452;8.466;2022-09-09T03:51:41;2.23;;;1.40;;
12459;SDS011;6295;49.452;8.466;2022-09-09T03:55:45;3.17;;;1.43;;
12459;SDS011;6295;49.452;8.466;2022-09-09T03:59:49;3.57;;;1.20;;
12459;SDS011;6295;49.452;8.466;2022-09-09T04:03:51;2.07;;;1.30;;
12459;SDS011;6295;49.452;8.466;2022-09-09T04:07:53;1.87;;;1.10;;
12459;SDS011;6295;49.452;8.466;2022-09-09T04:11:56;1.60;;;1.30;;
12459;SDS011;6295;49.452;8.466;2022-09-09T04:15:59;3.97;;;1.30;;
12459;SDS011;6295;49.452;8.466;2022-09-09T04:20:02;2.70;;;1.00;;
12459;SDS011;6295;49.452;8.466;2022-09-09T04:24:04;3.87;;;1.20;;
12459;SDS011;6295;49.452;8.466;2022-09-09T04:28:08;3.30;;;1.23;;
12459;SDS011;6295;49.452;8.466;2022-09-09T04:32:10;1.70;;;1.10;;
12459;SDS011;6295;49.452;8.466;2022-09-09T04:36:12;2.17;;;1.00;;
12459;SDS011;6295;49.452;8.466;2022-09-09T04:40:15;3.23;;;1.17;;
12459;SDS011;6295;49.452;8.466;2022-09-09T04:44:18;2.83;;;1.37;;
12459;SDS011;6295;49.452;8.466;2022-09-09T04:48:20;2.30;;;1.00;;
12459;SDS011;6295;49.452;8.466;2022-09-09T04:52:23;2.80;;;1.03;;
12459;SDS011;6295;49.452;8.466;2022-09-09T04:56:25;2.80;;;1.10;;
12459;SDS011;6295;49.452;8.466;2022-09-09T05:00:29;1.83;;;0.97;;
12459;SDS011;6295;49.452;8.466;2022-09-09T05:04:31;3.87;;;1.17;;
12459;SDS011;6295;49.452;8.466;2022-09-09T05:08:34;3.33;;;1.10;;
12459;SDS011;6295;49.452;8.466;2022-09-09T05:12:37;1.80;;;0.90;;
12459;SDS011;6295;49.452;8.466;2022-09-09T05:16:40;2.20;;;1.10;;
12459;SDS011;6295;49.452;8.466;2022-09-09T05:20:44;1.93;;;0.90;;
12459;SDS011;6295;49.452;8.466;2022-09-09T05:24:46;2.10;;;0.80;;
12459;SDS011;6295;49.452;8.466;2022-09-09T05:28:51;1.17;;;0.80;;
12459;SDS011;6295;49.452;8.466;2022-09-09T05:32:56;2.40;;;0.97;;
12459;SDS011;6295;49.452;8.466;2022-09-09T05:36:58;1.37;;;0.93;;
12459;SDS011;6295;49.452;8.466;2022-09-09T05:41:01;2.13;;;0.90;;
12459;SDS011;6295;49.452;8.466;2022-09-09T05:45:04;2.13;;;0.97;;
12459;SDS011;6295;49.452;8.466;2022-09-09T05:49:09;1.70;;;1.00;;
12459;SDS011;6295;49.452;8.466;2022-09-09T05:53:11;1.90;;;1.20;;
12459;SDS011;6295;49.452;8.466;2022-09-09T05:57:13;2.33;;;1.00;;
12459;SDS011;6295;49.452;8.466;2022-09-09T06:01:16;2.50;;;1.13;;
12459;SDS011;6295;49.452;8.466;2022-09-09T06:05:21;1.20;;;0.90;;
12459;SDS011;6295;49.452;8.466;2022-09-09T06:09:27;1.43;;;0.90;;
12459;SDS011;6295;49.452;8.466;2022-09-09T06:13:31;1.80;;;1.20;;
12459;SDS011;6295;49.452;8.466;2022-09-09T06:17:35;1.73;;;1.17;;
12459;SDS011;6295;49.452;8.466;2022-09-09T06:21:40;1.87;;;1.10;;
12459;SDS011;6295;49.452;8.466;2022-09-09T06:25:44;1.70;;;1.17;;
12459;SDS011;6295;49.452;8.466;2022-09-09T06:29:46;3.13;;;1.00;;
12459;SDS011;6295;49.452;8.466;2022-09-09T06:33:49;1.80;;;1.00;;
12459;SDS011;6295;49.452;8.466;2022-09-09T06:37:54;1.67;;;1.03;;
12459;SDS011;6295;49.452;8.466;2022-09-09T06:41:57;2.73;;;1.10;;
12459;SDS011;6295;49.452;8.466;2022-09-09T06:46:01;1.47;;;0.80;;
12459;SDS011;6295;49.452;8.466;2022-09-09T06:50:05;3.03;;;1.20;;
12459;SDS011;6295;49.452;8.466;2022-09-09T06:54:10;1.50;;;1.00;;
12459;SDS011;6295;49.452;8.466;2022-09-09T06:58:12;1.67;;;1.00;;
12459;SDS011;6295;49.452;8.466;2022-09-09T07:02:15;1.40;;;1.13;;
12459;SDS011;6295;49.452;8.466;2022-09-09T07:06:17;3.40;;;1.00;;
12459;SDS011;6295;49.452;8.466;2022-09-09T07:10:22;2.83;;;1.00;;
12459;SDS011;6295;49.452;8.466;2022-09-09T07:14:26;3.10;;;1.20;;
12459;SDS011;6295;49.452;8.466;2022-09-09T07:18:29;1.77;;;1.00;;
12459;SDS011;6295;49.452;8.466;2022-09-09T07:22:33;3.23;;;1.20;;
12459;SDS011;6295;49.452;8.466;2022-09-09T07:26:38;2.30;;;1.10;;
12459;SDS011;6295;49.452;8.466;2022-09-09T07:30:42;2.07;;;1.17;;
12459;SDS011;6295;49.452;8.466;2022-09-09T07:34:54;3.70;;;1.27;;
12459;SDS011;6295;49.452;8.466;2022-09-09T07:39:00;3.53;;;1.20;;
12459;SDS011;6295;49.452;8.466;2022-09-09T07:43:04;2.87;;;1.33;;
12459;SDS011;6295;49.452;8.466;2022-09-09T07:47:06;2.93;;;1.23;;
12459;SDS011;6295;49.452;8.466;2022-09-09T07:51:09;3.10;;;1.30;;
12459;SDS011;6295;49.452;8.466;2022-09-09T07:55:12;2.53;;;1.30;;
12459;SDS011;6295;49.452;8.466;2022-09-09T07:59:16;2.47;;;1.43;;
12459;SDS011;6295;49.452;8.466;2022-09-09T08:03:19;1.87;;;1.13;;
12459;SDS011;6295;49.452;8.466;2022-09-09T08:07:24;3.47;;;1.33;;
12459;SDS011;6295;49.452;8.466;2022-09-09T08:11:28;6.47;;;1.40;;
12459;SDS011;6295;49.452;8.466;2022-09-09T08:15:35;3.00;;;1.30;;
12459;SDS011;6295;49.452;8.466;2022-09-09T08:19:38;2.60;;;1.37;;
12459;SDS011;6295;49.452;8.466;2022-09-09T08:23:43;2.40;;;1.10;;
12459;SDS011;6295;49.452;8.466;2022-09-09T08:27:47;3.27;;;1.50;;
12459;SDS011;6295;49.452;8.466;2022-09-09T08:31:53;3.37;;;1.23;;
12459;SDS011;6295;49.452;8.466;2022-09-09T08:35:57;3.13;;;1.40;;
12459;SDS011;6295;49.452;8.466;2022-09-09T08:40:00;3.30;;;1.23;;
12459;SDS011;6295;49.452;8.466;2022-09-09T08:44:04;3.30;;;1.70;;
12459;SDS011;6295;49.452;8.466;2022-09-09T08:48:19;2.73;;;1.30;;
12459;SDS011;6295;49.452;8.466;2022-09-09T08:52:36;2.10;;;1.10;;
12459;SDS011;6295;49.452;8.466;2022-09-09T08:56:45;3.97;;;1.53;;
12459;SDS011;6295;49.452;8.466;2022-09-09T09:00:51;3.57;;;1.30;;
12459;SDS011;6295;49.452;8.466;2022-09-09T09:05:08;3.27;;;1.40;;
12459;SDS011;6295;49.452;8.466;2022-09-09T09:09:21;2.50;;;1.43;;
12459;SDS011;6295;49.452;8.466;2022-09-09T09:13:33;3.77;;;1.40;;
12459;SDS011;6295;49.452;8.466;2022-09-09T09:17:39;4.87;;;1.50;;
12459;SDS011;6295;49.452;8.466;2022-09-09T09:21:45;3.47;;;1.80;;
12459;SDS011;6295;49.452;8.466;2022-09-09T09:25:54;4.47;;;1.70;;
12459;SDS011;6295;49.452;8.466;2022-09-09T09:29:59;3.70;;;1.57;;
12459;SDS011;6295;49.452;8.466;2022-09-09T09:34:04;4.80;;;1.60;;
12459;SDS011;6295;49.452;8.466;2022-09-09T09:38:11;3.77;;;1.47;;
12459;SDS011;6295;49.452;8.466;2022-09-09T09:42:19;3.37;;;1.80;;
12459;SDS011;6295;49.452;8.466;2022-09-09T09:46:21;3.20;;;1.60;;
12459;SDS011;6295;49.452;8.466;2022-09-09T09:50:26;3.27;;;1.60;;
12459;SDS011;6295;49.452;8.466;2022-09-09T09:54:30;4.50;;;1.60;;
12459;SDS011;6295;49.452;8.466;2022-09-09T09:58:38;4.77;;;1.90;;
12459;SDS011;6295;49.452;8.466;2022-09-09T10:02:51;4.73;;;1.67;;
12459;SDS011;6295;49.452;8.466;2022-09-09T10:06:55;6.00;;;1.50;;
12459;SDS011;6295;49.452;8.466;2022-09-09T10:11:04;4.17;;;1.60;;
12459;SDS011;6295;49.452;8.466;2022-09-09T10:15:36;2.40;;;1.30;;
12459;SDS011;6295;49.452;8.466;2022-09-09T10:19:50;4.57;;;1.50;;
12459;SDS011;6295;49.452;8.466;2022-09-09T10:24:04;2.40;;;1.20;;
12459;SDS011;6295;49.452;8.466;2022-09-09T10:28:41;3.57;;;1.60;;
12459;SDS011;6295;49.452;8.466;2022-09-09T10:32:56;3.97;;;1.50;;
12459;SDS011;6295;49.452;8.466;2022-09-09T10:37:11;2.87;;;1.50;;
12459;SDS011;6295;49.452;8.466;2022-09-09T10:41:32;3.43;;;1.77;;
12459;SDS011;6295;49.452;8.466;2022-09-09T10:45:52;4.33;;;1.70;;
12459;SDS011;6295;49.452;8.466;2022-09-09T10:50:16;5.53;;;1.77;;
12459;SDS011;6295;49.452;8.466;2022-09-09T10:54:28;5.23;;;1.77;;
12459;SDS011;6295;49.452;8.466;2022-09-09T10:58:40;3.80;;;1.50;;
12459;SDS011;6295;49.452;8.466;2022-09-09T11:02:51;5.53;;;1.90;;
12459;SDS011;6295;49.452;8.466;2022-09-09T11:07:00;3.57;;;1.60;;
12459;SDS011;6295;49.452;8.466;2022-09-09T11:11:09;3.20;;;1.53;;
12459;SDS011;6295;49.452;8.466;2022-09-09T11:15:14;5.30;;;1.53;;
12459;SDS011;6295;49.452;8.466;2022-09-09T11:19:24;2.60;;;1.50;;
12459;SDS011;6295;49.452;8.466;2022-09-09T11:23:32;4.00;;;1.60;;
12459;SDS011;6295;49.452;8.466;2022-09-09T11:27:43;3.83;;;1.53;;
12459;SDS011;6295;49.452;8.466;2022-09-09T11:32:00;3.53;;;1.50;;
12459;SDS011;6295;49.452;8.466;2022-09-09T11:36:25;4.00;;;1.40;;
12459;SDS011;6295;49.452;8.466;2022-09-09T11:40:44;4.53;;;1.80;;
12459;SDS011;6295;49.452;8.466;2022-09-09T11:44:47;3.40;;;1.50;;
12459;SDS011;6295;49.452;8.466;2022-09-09T11:48:57;2.93;;;1.23;;
12459;SDS011;6295;49.452;8.466;2022-09-09T11:57:24;4.57;;;1.57;;
12459;SDS011;6295;49.452;8.466;2022-09-09T12:01:37;4.67;;;1.60;;
12459;SDS011;6295;49.452;8.466;2022-09-09T12:05:43;3.60;;;1.57;;
12459;SDS011;6295;49.452;8.466;2022-09-09T12:09:49;3.03;;;1.47;;
12459;SDS011;6295;49.452;8.466;2022-09-09T12:13:55;3.70;;;1.50;;
12459;SDS011;6295;49.452;8.466;2022-09-09T12:17:59;3.93;;;1.77;;
12459;SDS011;6295;49.452;8.466;2022-09-09T12:22:03;4.10;;;1.10;;
12459;SDS011;6295;49.452;8.466;2022-09-09T12:26:15;2.60;;;1.10;;
12459;SDS011;6295;49.452;8.466;2022-09-09T12:30:28;2.43;;;1.00;;
12459;SDS011;6295;49.452;8.466;2022-09-09T12:34:36;2.20;;;0.90;;
12459;SDS011;6295;49.452;8.466;2022-09-09T12:38:40;1.40;;;0.80;;
12459;SDS011;6295;49.452;8.466;2022-09-09T12:42:47;2.53;;;0.70;;
12459;SDS011;6295;49.452;8.466;2022-09-09T12:46:51;2.83;;;1.00;;
12459;SDS011;6295;49.452;8.466;2022-09-09T12:50:54;3.37;;;1.00;;
12459;SDS011;6295;49.452;8.466;2022-09-09T12:55:00;2.73;;;0.90;;
12459;SDS011;6295;49.452;8.466;2022-09-09T12:59:17;1.20;;;0.90;;
12459;SDS011;6295;49.452;8.466;2022-09-09T13:03:25;3.57;;;1.03;;
12459;SDS011;6295;49.452;8.466;2022-09-09T13:07:28;3.20;;;1.20;;
12459;SDS011;6295;49.452;8.466;2022-09-09T13:11:34;2.13;;;1.20;;
12459;SDS011;6295;49.452;8.466;2022-09-09T13:15:50;3.07;;;1.40;;
12459;SDS011;6295;49.452;8.466;2022-09-09T13:19:53;3.80;;;1.40;;
12459;SDS011;6295;49.452;8.466;2022-09-09T13:23:59;3.77;;;1.60;;
12459;SDS011;6295;49.452;8.466;2022-09-09T13:28:04;3.67;;;1.60;;
12459;SDS011;6295;49.452;8.466;2022-09-09T13:32:23;3.93;;;1.73;;
12459;SDS011;6295;49.452;8.466;2022-09-09T13:36:28;5.17;;;2.03;;
12459;SDS011;6295;49.452;8.466;2022-09-09T13:40:32;2.73;;;1.40;;
12459;SDS011;6295;49.452;8.466;2022-09-09T13:44:35;2.87;;;1.30;;
12459;SDS011;6295;49.452;8.466;2022-09-09T13:48:43;2.83;;;1.40;;
12459;SDS011;6295;49.452;8.466;2022-09-09T13:52:56;1.90;;;1.10;;
12459;SDS011;6295;49.452;8.466;2022-09-09T13:57:00;1.83;;;1.00;;
12459;SDS011;6295;49.452;8.466;2022-09-09T14:01:02;1.10;;;0.90;;
12459;SDS011;6295;49.452;8.466;2022-09-09T14:05:07;2.43;;;1.00;;
12459;SDS011;6295;49.452;8.466;2022-09-09T14:09:10;1.57;;;0.90;;
12459;SDS011;6295;49.452;8.466;2022-09-09T14:13:15;1.53;;;0.90;;
12459;SDS011;6295;49.452;8.466;2022-09-09T14:17:18;1.20;;;0.90;;
12459;SDS011;6295;49.452;8.466;2022-09-09T14:21:24;1.30;;;0.80;;
12459;SDS011;6295;49.452;8.466;2022-09-09T14:25:28;2.07;;;0.90;;
12459;SDS011;6295;49.452;8.466;2022-09-09T14:29:32;1.30;;;0.90;;
12459;SDS011;6295;49.452;8.466;2022-09-09T14:33:34;0.90;;;0.80;;
12459;SDS011;6295;49.452;8.466;2022-09-09T14:37:38;1.30;;;1.00;;
12459;SDS011;6295;49.452;8.466;2022-09-09T14:41:40;1.20;;;0.80;;
12459;SDS011;6295;49.452;8.466;2022-09-09T14:45:43;1.50;;;0.90;;
12459;SDS011;6295;49.452;8.466;2022-09-09T14:49:45;1.60;;;1.00;;
12459;SDS011;6295;49.452;8.466;2022-09-09T14:53:52;1.00;;;0.80;;
12459;SDS011;6295;49.452;8.466;2022-09-09T14:57:55;1.73;;;1.10;;
12459;SDS011;6295;49.452;8.466;2022-09-09T15:01:57;2.70;;;1.20;;
12459;SDS011;6295;49.452;8.466;2022-09-09T15:06:07;2.53;;;1.10;;
12459;SDS011;6295;49.452;8.466;2022-09-09T15:10:11;4.23;;;1.63;;
12459;SDS011;6295;49.452;8.466;2022-09-09T15:14:14;4.40;;;1.50;;
12459;SDS011;6295;49.452;8.466;2022-09-09T15:18:17;4.37;;;1.20;;
12459;SDS011;6295;49.452;8.466;2022-09-09T15:22:21;3.00;;;1.20;;
12459;SDS011;6295;49.452;8.466;2022-09-09T15:26:27;2.90;;;1.10;;
12459;SDS011;6295;49.452;8.466;2022-09-09T15:30:31;3.93;;;1.13;;
12459;SDS011;6295;49.452;8.466;2022-09-09T15:34:33;2.00;;;1.10;;
12459;SDS011;6295;49.452;8.466;2022-09-09T15:38:36;1.93;;;0.90;;
12459;SDS011;6295;49.452;8.466;2022-09-09T15:42:40;1.83;;;1.00;;
12459;SDS011;6295;49.452;8.466;2022-09-09T15:46:43;2.07;;;1.00;;
12459;SDS011;6295;49.452;8.466;2022-09-09T15:50:46;2.40;;;1.30;;
12459;SDS011;6295;49.452;8.466;2022-09-09T15:54:49;1.83;;;1.20;;
12459;SDS011;6295;49.452;8.466;2022-09-09T15:58:54;1.83;;;1.23;;
12459;SDS011;6295;49.452;8.466;2022-09-09T16:02:59;1.97;;;1.10;;
12459;SDS011;6295;49.452;8.466;2022-09-09T16:07:03;2.40;;;1.17;;
12459;SDS011;6295;49.452;8.466;2022-09-09T16:11:07;3.63;;;1.20;;
12459;SDS011;6295;49.452;8.466;2022-09-09T16:15:17;2.17;;;1.10;;
12459;SDS011;6295;49.452;8.466;2022-09-09T16:19:23;1.87;;;1.03;;
12459;SDS011;6295;49.452;8.466;2022-09-09T16:23:26;3.10;;;1.10;;
12459;SDS011;6295;49.452;8.466;2022-09-09T16:27:28;1.33;;;1.00;;
12459;SDS011;6295;49.452;8.466;2022-09-09T16:31:32;1.50;;;1.23;;
12459;SDS011;6295;49.452;8.466;2022-09-09T16:35:35;1.93;;;1.00;;
12459;SDS011;6295;49.452;8.466;2022-09-09T16:39:38;2.20;;;1.20;;
12459;SDS011;6295;49.452;8.466;2022-09-09T16:43:41;1.83;;;0.80;;
12459;SDS011;6295;49.452;8.466;2022-09-09T16:47:44;1.80;;;0.90;;
12459;SDS011;6295;49.452;8.466;2022-09-09T16:51:49;1.97;;;0.90;;
12459;SDS011;6295;49.452;8.466;2022-09-09T16:55:53;2.77;;;1.00;;
12459;SDS011;6295;49.452;8.466;2022-09-09T16:59:55;3.00;;;1.07;;
12459;SDS011;6295;49.452;8.466;2022-09-09T17:04:01;1.50;;;1.10;;
12459;SDS011;6295;49.452;8.466;2022-09-09T17:08:05;1.77;;;1.00;;
12459;SDS011;6295;49.452;8.466;2022-09-09T17:12:08;2.27;;;1.20;;
12459;SDS011;6295;49.452;8.466;2022-09-09T17:16:12;1.23;;;1.00;;
12459;SDS011;6295;49.452;8.466;2022-09-09T17:20:16;1.40;;;0.97;;
12459;SDS011;6295;49.452;8.466;2022-09-09T17:24:18;1.70;;;1.10;;
12459;SDS011;6295;49.452;8.466;2022-09-09T17:28:21;1.10;;;1.00;;
12459;SDS011;6295;49.452;8.466;2022-09-09T17:32:27;2.50;;;1.00;;
12459;SDS011;6295;49.452;8.466;2022-09-09T17:36:32;2.03;;;1.10;;
12459;SDS011;6295;49.452;8.466;2022-09-09T17:40:36;1.50;;;1.00;;
12459;SDS011;6295;49.452;8.466;2022-09-09T17:44:38;2.60;;;1.30;;
12459;SDS011;6295;49.452;8.466;2022-09-09T17:48:42;1.90;;;1.10;;
12459;SDS011;6295;49.452;8.466;2022-09-09T17:52:49;2.17;;;1.20;;
12459;SDS011;6295;49.452;8.466;2022-09-09T17:56:53;3.60;;;1.10;;
12459;SDS011;6295;49.452;8.466;2022-09-09T18:01:01;4.70;;;1.80;;
12459;SDS011;6295;49.452;8.466;2022-09-09T18:05:05;4.07;;;1.70;;
12459;SDS011;6295;49.452;8.466;2022-09-09T18:09:13;1.67;;;1.00;;
12459;SDS011;6295;49.452;8.466;2022-09-09T18:13:17;2.93;;;1.20;;
12459;SDS011;6295;49.452;8.466;2022-09-09T18:17:21;3.20;;;1.40;;
12459;SDS011;6295;49.452;8.466;2022-09-09T18:21:24;2.57;;;1.23;;
12459;SDS011;6295;49.452;8.466;2022-09-09T18:25:35;2.03;;;1.00;;
12459;SDS011;6295;49.452;8.466;2022-09-09T18:29:38;1.60;;;1.03;;
12459;SDS011;6295;49.452;8.466;2022-09-09T18:33:42;2.03;;;1.10;;
12459;SDS011;6295;49.452;8.466;2022-09-09T18:37:47;2.00;;;1.00;;
12459;SDS011;6295;49.452;8.466;2022-09-09T18:41:52;1.73;;;1.10;;
12459;SDS011;6295;49.452;8.466;2022-09-09T18:45:55;5.20;;;1.27;;
12459;SDS011;6295;49.452;8.466;2022-09-09T18:50:04;2.40;;;1.00;;
12459;SDS011;6295;49.452;8.466;2022-09-09T18:54:09;2.67;;;0.90;;
12459;SDS011;6295;49.452;8.466;2022-09-09T18:58:16;3.80;;;1.10;;
12459;SDS011;6295;49.452;8.466;2022-09-09T19:02:18;3.47;;;1.00;;
12459;SDS011;6295;49.452;8.466;2022-09-09T19:06:23;3.63;;;1.07;;
12459;SDS011;6295;49.452;8.466;2022-09-09T19:10:26;3.67;;;1.10;;
12459;SDS011;6295;49.452;8.466;2022-09-09T19:14:31;2.07;;;1.17;;
12459;SDS011;6295;49.452;8.466;2022-09-09T19:18:33;1.77;;;1.10;;
12459;SDS011;6295;49.452;8.466;2022-09-09T19:22:35;1.80;;;1.20;;
12459;SDS011;6295;49.452;8.466;2022-09-09T19:26:39;1.30;;;1.00;;
12459;SDS011;6295;49.452;8.466;2022-09-09T19:30:45;3.93;;;1.20;;
12459;SDS011;6295;49.452;8.466;2022-09-09T19:34:48;4.87;;;1.27;;
12459;SDS011;6295;49.452;8.466;2022-09-09T19:38:51;2.43;;;1.20;;
12459;SDS011;6295;49.452;8.466;2022-09-09T19:42:54;2.03;;;1.03;;
12459;SDS011;6295;49.452;8.466;2022-09-09T19:46:58;2.50;;;1.00;;
12459;SDS011;6295;49.452;8.466;2022-09-09T19:51:00;3.03;;;1.27;;
12459;SDS011;6295;49.452;8.466;2022-09-09T19:55:04;3.53;;;1.20;;
12459;SDS011;6295;49.452;8.466;2022-09-09T19:59:07;1.97;;;1.20;;
12459;SDS011;6295;49.452;8.466;2022-09-09T20:03:13;1.63;;;1.07;;
12459;SDS011;6295;49.452;8.466;2022-09-09T20:07:15;2.97;;;1.20;;
12459;SDS011;6295;49.452;8.466;2022-09-09T20:11:18;2.77;;;1.10;;
12459;SDS011;6295;49.452;8.466;2022-09-09T20:15:20;1.70;;;1.10;;
12459;SDS011;6295;49.452;8.466;2022-09-09T20:19:24;2.00;;;1.00;;
12459;SDS011;6295;49.452;8.466;2022-09-09T20:23:26;1.87;;;1.00;;
12459;SDS011;6295;49.452;8.466;2022-09-09T20:27:29;1.03;;;0.90;;
12459;SDS011;6295;49.452;8.466;2022-09-09T20:31:33;1.60;;;1.10;;
12459;SDS011;6295;49.452;8.466;2022-09-09T20:35:40;3.03;;;1.03;;
12459;SDS011;6295;49.452;8.466;2022-09-09T20:39:42;3.20;;;1.03;;
12459;SDS011;6295;49.452;8.466;2022-09-09T20:43:45;2.40;;;1.00;;
12459;SDS011;6295;49.452;8.466;2022-09-09T20:47:48;2.07;;;1.10;;
12459;SDS011;6295;49.452;8.466;2022-09-09T20:51:52;1.53;;;0.90;;
12459;SDS011;6295;49.452;8.466;2022-09-09T20:55:57;1.20;;;1.10;;
12459;SDS011;6295;49.452;8.466;2022-09-09T21:00:00;3.93;;;1.10;;
12459;SDS011;6295;49.452;8.466;2022-09-09T21:04:02;2.10;;;1.03;;
12459;SDS011;6295;49.452;8.466;2022-09-09T21:08:07;1.80;;;1.20;;
12459;SDS011;6295;49.452;8.466;2022-09-09T21:12:09;1.47;;;1.20;;
12459;SDS011;6295;49.452;8.466;2022-09-09T21:16:13;1.73;;;0.90;;
12459;SDS011;6295;49.452;8.466;2022-09-09T21:20:18;1.90;;;1.20;;
12459;SDS011;6295;49.452;8.466;2022-09-09T21:24:22;1.43;;;1.00;;
12459;SDS011;6295;49.452;8.466;2022-09-09T21:28:24;1.77;;;1.27;;
12459;SDS011;6295;49.452;8.466;2022-09-09T21:32:27;1.40;;;1.20;;
12459;SDS011;6295;49.452;8.466;2022-09-09T21:36:29;3.00;;;1.20;;
12459;SDS011;6295;49.452;8.466;2022-09-09T21:40:36;3.17;;;1.00;;
12459;SDS011;6295;49.452;8.466;2022-09-09T21:44:39;2.33;;;1.07;;
12459;SDS011;6295;49.452;8.466;2022-09-09T21:48:41;1.53;;;1.00;;
12459;SDS011;6295;49.452;8.466;2022-09-09T21:52:43;1.70;;;1.27;;
12459;SDS011;6295;49.452;8.466;2022-09-09T21:56:48;1.70;;;1.23;;
12459;SDS011;6295;49.452;8.466;2022-09-09T22:00:51;1.83;;;1.23;;
12459;SDS011;6295;49.452;8.466;2022-09-09T22:04:53;2.70;;;1.33;;
12459;SDS011;6295;49.452;8.466;2022-09-09T22:08:55;1.93;;;1.33;;
12459;SDS011;6295;49.452;8.466;2022-09-09T22:12:59;2.03;;;1.30;;
12459;SDS011;6295;49.452;8.466;2022-09-09T22:17:02;2.33;;;1.40;;
12459;SDS011;6295;49.452;8.466;2022-09-09T22:21:05;1.63;;;1.30;;
12459;SDS011;6295;49.452;8.466;2022-09-09T22:25:09;2.37;;;1.30;;
12459;SDS011;6295;49.452;8.466;2022-09-09T22:29:12;2.47;;;1.13;;
12459;SDS011;6295;49.452;8.466;2022-09-09T22:33:16;2.87;;;1.30;;
12459;SDS011;6295;49.452;8.466;2022-09-09T22:37:19;1.30;;;1.20;;
12459;SDS011;6295;49.452;8.466;2022-09-09T22:41:22;3.17;;;1.40;;
12459;SDS011;6295;49.452;8.466;2022-09-09T22:45:26;1.70;;;1.30;;
12459;SDS011;6295;49.452;8.466;2022-09-09T22:49:29;4.40;;;1.43;;
12459;SDS011;6295;49.452;8.466;2022-09-09T22:53:31;2.23;;;1.30;;
12459;SDS011;6295;49.452;8.466;2022-09-09T22:57:34;2.60;;;1.33;;
12459;SDS011;6295;49.452;8.466;2022-09-09T23:01:38;2.00;;;1.40;;
12459;SDS011;6295;49.452;8.466;2022-09-09T23:05:40;1.93;;;1.30;;
12459;SDS011;6295;49.452;8.466;2022-09-09T23:09:42;3.27;;;1.50;;
12459;SDS011;6295;49.452;8.466;2022-09-09T23:13:46;3.70;;;1.60;;
12459;SDS011;6295;49.452;8.466;2022-09-09T23:17:52;2.37;;;1.60;;
12459;SDS011;6295;49.452;8.466;2022-09-09T23:21:54;2.17;;;1.40;;
12459;SDS011;6295;49.452;8.466;2022-09-09T23:26:00;4.23;;;1.57;;
12459;SDS011;6295;49.452;8.466;2022-09-09T23:30:04;2.13;;;1.47;;
12459;SDS011;6295;49.452;8.466;2022-09-09T23:34:11;3.10;;;1.37;;
12459;SDS011;6295;49.452;8.466;2022-09-09T23:38:14;2.53;;;1.70;;
12459;SDS011;6295;49.452;8.466;2022-09-09T23:42:16;2.33;;;1.43;;
12459;SDS011;6295;49.452;8.466;2022-09-09T23:46:19;3.30;;;1.40;;
12459;SDS011;6295;49.452;8.466;2022-09-09T23:50:24;3.50;;;1.43;;
12459;SDS011;6295;49.452;8.466;2022-09-09T23:54:27;2.57;;;1.47;;
12459;SDS011;6295;49.452;8.466;2022-09-09T23:58:29;4.33;;;1.53;;
